Time;durP1;ratioP1;P1;durP2;ratioP2;P2;SDS_P1;SDS_P2;PMS_P1;PMS_P2;Temp;Humidity;BMP_temperature;BMP_pressure;BME280_temperature;BME280_humidity;BME280_pressure;Samples;Min_cycle;Max_cycle;Signal;HPM_P1;HPM_P2
2021/07/13 05:39:48;;;;;;;;;16.25;15.50;;;;;18.35;73.80;100957.13;6004112;23;46451;-72
2021/07/13 05:42:14;;;;;;;;;17.50;17.50;;;;;18.33;73.53;100954.53;4977689;28;46518;-72
2021/07/13 05:44:39;;;;;;;;;19.75;16.50;;;;;18.36;73.94;100957.03;4978929;28;45416;-72
2021/07/13 05:47:05;;;;;;;;;17.75;15.50;;;;;18.38;73.57;100946.25;4987869;28;45243;-72
2021/07/13 05:49:30;;;;;;;;;18.00;17.50;;;;;18.38;73.42;100947.13;4978087;28;45418;-72
2021/07/13 05:51:55;;;;;;;;;21.50;16.25;;;;;18.39;73.53;100948.84;4988852;28;45295;-72
2021/07/13 05:54:21;;;;;;;;;16.00;14.50;;;;;18.41;73.66;100940.75;4988114;28;46989;-72
2021/07/13 05:56:46;;;;;;;;;22.50;18.00;;;;;18.47;73.53;100944.84;4971876;28;45451;-72
2021/07/13 05:59:12;;;;;;;;;23.75;16.00;;;;;18.48;73.58;100951.88;4975976;28;45843;-72
2021/07/13 06:01:38;;;;;;;;;21.50;17.50;;;;;18.47;74.00;100950.16;4989519;28;45284;-72
2021/07/13 06:04:03;;;;;;;;;20.50;18.75;;;;;18.43;73.24;100939.72;4998598;28;46985;-72
2021/07/13 06:06:29;;;;;;;;;21.25;18.00;;;;;18.42;73.72;100943.31;4999124;28;45450;-72
2021/07/13 06:08:54;;;;;;;;;15.25;15.25;;;;;18.42;73.59;100938.00;4996274;28;45340;-72
2021/07/13 06:11:19;;;;;;;;;16.25;15.00;;;;;18.41;73.61;100940.75;4968512;28;45382;-72
2021/07/13 06:13:45;;;;;;;;;14.75;14.00;;;;;18.41;73.97;100930.13;4978881;28;46048;-72
2021/07/13 06:16:10;;;;;;;;;15.25;15.25;;;;;18.44;74.37;100944.09;4993770;28;45374;-72
2021/07/13 06:18:35;;;;;;;;;19.25;15.00;;;;;18.45;73.78;100934.28;4990488;28;45289;-72
2021/07/13 06:21:01;;;;;;;;;21.00;15.50;;;;;18.50;74.05;100944.63;4984803;28;47144;-72
2021/07/13 06:23:26;;;;;;;;;21.75;17.25;;;;;18.53;74.28;100944.44;4985939;28;46083;-72
2021/07/13 06:25:51;;;;;;;;;16.25;15.75;;;;;18.52;73.87;100934.78;4986273;28;45517;-72
2021/07/13 06:28:17;;;;;;;;;18.00;16.75;;;;;18.51;73.79;100928.59;4983295;28;45385;-72
2021/07/13 06:30:42;;;;;;;;;18.00;16.25;;;;;18.49;74.11;100924.31;4993069;28;45936;-72
2021/07/13 06:33:08;;;;;;;;;19.00;15.00;;;;;18.48;74.19;100930.56;4977966;28;47018;-72
2021/07/13 06:35:33;;;;;;;;;20.50;16.25;;;;;18.49;74.45;100932.28;4971864;28;45564;-72
2021/07/13 06:37:59;;;;;;;;;25.75;20.00;;;;;18.51;74.87;100933.91;4979075;28;45410;-72
2021/07/13 06:40:25;;;;;;;;;17.75;16.25;;;;;18.56;74.11;100938.94;4990589;28;45708;-72
2021/07/13 06:42:50;;;;;;;;;21.75;17.75;;;;;18.54;74.61;100931.03;4984428;28;46846;-72
2021/07/13 06:45:16;;;;;;;;;16.25;15.50;;;;;18.55;74.35;100929.22;4983424;28;45250;-72
2021/07/13 06:47:41;;;;;;;;;17.00;15.00;;;;;18.57;74.57;100927.31;4995527;28;45347;-72
2021/07/13 06:50:07;;;;;;;;;22.75;19.50;;;;;18.60;74.41;100929.78;4968362;28;45373;-72
2021/07/13 06:52:32;;;;;;;;;20.75;20.50;;;;;18.59;74.32;100922.78;4993602;28;46407;-72
2021/07/13 06:55:02;;;;;;;;;22.25;21.00;;;;;18.61;74.43;100912.88;4979655;28;45265;-72
2021/07/13 06:57:28;;;;;;;;;21.25;20.25;;;;;18.61;74.48;100909.34;4980723;28;46497;-72
2021/07/13 06:59:53;;;;;;;;;21.00;18.25;;;;;18.62;74.10;100911.91;4999357;28;45328;-72
2021/07/13 07:02:18;;;;;;;;;24.25;22.00;;;;;18.61;74.33;100915.53;4996280;28;47142;-72
2021/07/13 07:04:44;;;;;;;;;21.75;20.25;;;;;18.62;74.42;100911.91;4972496;28;45406;-72
2021/07/13 07:07:09;;;;;;;;;17.00;17.00;;;;;18.63;74.19;100910.97;4988422;28;45472;-72
2021/07/13 07:09:34;;;;;;;;;20.75;18.25;;;;;18.61;74.38;100912.03;4988640;28;46043;-72
2021/07/13 07:11:59;;;;;;;;;22.00;17.25;;;;;18.61;74.67;100912.03;4994371;28;47120;-72
2021/07/13 07:14:25;;;;;;;;;22.00;20.75;;;;;18.60;74.68;100908.50;4993136;28;45248;-72
2021/07/13 07:16:50;;;;;;;;;19.25;16.50;;;;;18.60;74.63;100902.31;4993427;28;45231;-72
2021/07/13 07:19:16;;;;;;;;;25.00;19.50;;;;;18.58;74.64;100894.44;5001253;28;46958;-72
2021/07/13 07:21:41;;;;;;;;;25.50;21.00;;;;;18.57;75.07;100886.56;5001979;28;45617;-72
2021/07/13 07:24:07;;;;;;;;;26.75;23.00;;;;;18.55;74.69;100900.81;4994229;28;45260;-72
2021/07/13 07:26:32;;;;;;;;;17.25;12.00;;;;;18.54;74.37;100899.09;4984751;28;45507;-72
2021/07/13 07:28:57;;;;;;;;;22.75;18.00;;;;;18.58;74.81;100920.19;4984370;28;45494;-72
2021/07/13 07:31:23;;;;;;;;;29.50;23.25;;;;;18.58;74.91;100923.72;4994037;28;45278;-72
2021/07/13 07:33:49;;;;;;;;;26.75;19.75;;;;;18.61;75.42;100923.53;4999383;28;45245;-72
2021/07/13 07:36:14;;;;;;;;;25.75;23.50;;;;;18.65;75.30;100929.50;4982417;28;45370;-72
2021/07/13 07:38:40;;;;;;;;;24.25;24.25;;;;;18.72;74.63;100941.44;4991217;28;45326;-72
2021/07/13 07:41:06;;;;;;;;;29.25;23.25;;;;;18.77;74.51;100942.00;4986602;28;46996;-72
2021/07/13 07:43:31;;;;;;;;;23.75;21.75;;;;;18.81;74.57;100936.50;5002038;28;45573;-72
2021/07/13 07:45:57;;;;;;;;;27.00;21.25;;;;;18.83;74.53;100938.09;4991992;28;45478;-72
2021/07/13 07:48:22;;;;;;;;;26.00;21.50;;;;;18.85;74.56;100940.66;4992423;28;45536;-72
2021/07/13 07:50:48;;;;;;;;;24.00;22.75;;;;;18.87;74.28;100936.06;4994505;28;48199;-72
2021/07/13 07:53:13;;;;;;;;;27.25;22.00;;;;;18.91;74.32;100950.91;5000417;28;45225;-72
2021/07/13 07:55:38;;;;;;;;;25.50;24.50;;;;;18.94;74.42;100947.22;4988188;28;45425;-72
2021/07/13 07:58:04;;;;;;;;;26.50;21.75;;;;;18.95;74.35;100940.91;4997778;28;45304;-72
2021/07/13 08:00:30;;;;;;;;;22.25;21.00;;;;;18.95;74.20;100939.09;4992844;28;45906;-72
2021/07/13 08:02:55;;;;;;;;;29.50;23.50;;;;;18.96;73.88;100931.97;5001892;28;45300;-72
2021/07/13 08:05:24;;;;;;;;;24.50;20.25;;;;;18.96;74.23;100939.97;5001923;28;45240;-72
2021/07/13 08:07:50;;;;;;;;;24.75;21.50;;;;;18.97;73.88;100947.84;5001338;28;45462;-72
2021/07/13 08:10:16;;;;;;;;;27.50;20.50;;;;;19.00;74.37;100952.97;4982553;28;46166;-72
2021/07/13 08:12:42;;;;;;;;;26.25;19.25;;;;;19.03;73.83;100956.38;4975408;28;45395;-72
2021/07/13 08:15:08;;;;;;;;;23.25;20.00;;;;;19.08;74.01;100951.63;4996047;28;45239;-72
2021/07/13 08:17:34;;;;;;;;;22.00;19.50;;;;;19.14;73.70;100958.34;4998378;28;45479;-72
2021/07/13 08:19:59;;;;;;;;;21.75;19.50;;;;;19.15;73.53;100957.38;4999898;28;45307;-72
2021/07/13 08:22:25;;;;;;;;;20.75;18.00;;;;;19.14;73.96;100956.53;4990799;28;45314;-72
2021/07/13 08:24:50;;;;;;;;;22.00;21.75;;;;;19.14;73.73;100961.03;4985966;28;45267;-72
2021/07/13 08:27:16;;;;;;;;;17.25;15.50;;;;;19.16;74.01;100964.44;5001261;28;45546;-72
2021/07/13 08:29:42;;;;;;;;;16.50;14.75;;;;;19.16;74.30;100965.25;4987285;28;46692;-72
2021/07/13 08:32:08;;;;;;;;;16.75;14.25;;;;;19.16;74.26;100967.94;4970579;28;45592;-72
2021/07/13 08:34:34;;;;;;;;;19.00;15.75;;;;;19.15;74.18;100960.91;4998208;28;45356;-72
2021/07/13 08:37:02;;;;;;;;;22.50;17.25;;;;;19.11;74.76;100964.75;5001462;28;45613;-72
2021/07/13 08:39:28;;;;;;;;;17.25;13.75;;;;;19.12;74.68;100961.09;4996877;28;45433;-72
2021/07/13 08:41:53;;;;;;;;;18.75;16.00;;;;;19.10;75.56;100958.56;4987527;28;45472;-73
2021/07/13 08:44:18;;;;;;;;;15.25;11.00;;;;;19.11;76.08;100962.91;4985971;28;45269;-73
2021/07/13 08:46:45;;;;;;;;;20.00;17.00;;;;;19.10;76.34;100958.56;4982291;28;45326;-73
2021/07/13 08:49:13;;;;;;;;;19.25;15.75;;;;;19.10;75.73;100963.88;4991042;28;46336;-73
2021/07/13 08:51:40;;;;;;;;;19.75;15.75;;;;;19.10;75.85;100955.88;4999988;28;45569;-73
2021/07/13 08:54:06;;;;;;;;;22.50;17.25;;;;;19.11;75.68;100962.91;4998167;28;45332;-73
2021/07/13 08:56:32;;;;;;;;;19.50;17.00;;;;;19.10;76.21;100950.56;4979883;28;45597;-73
2021/07/13 08:58:59;;;;;;;;;16.25;15.00;;;;;19.10;76.51;100950.56;5000383;28;45363;-73
2021/07/13 09:01:24;;;;;;;;;19.75;16.00;;;;;19.12;76.60;100950.44;4986870;28;45387;-73
2021/07/13 09:03:54;;;;;;;;;24.00;14.75;;;;;19.10;75.69;100958.56;4984047;28;45352;-73
2021/07/13 09:06:20;;;;;;;;;18.25;16.00;;;;;19.08;75.87;100956.94;4972856;28;46061;-73
2021/07/13 09:08:45;;;;;;;;;23.00;18.25;;;;;19.08;76.23;100959.59;4985590;28;46329;-73
2021/07/13 09:11:17;;;;;;;;;22.50;17.00;;;;;19.07;75.90;100968.53;4966074;28;45296;-72
2021/07/13 09:13:46;;;;;;;;;22.00;17.75;;;;;19.07;76.17;100974.72;4984340;28;45344;-72
2021/07/13 09:16:16;;;;;;;;;17.25;14.00;;;;;19.05;75.32;100978.44;4996829;28;45341;-72
2021/07/13 09:18:46;;;;;;;;;21.75;20.25;;;;;19.03;75.77;100986.56;4984706;28;46219;-72
2021/07/13 09:21:24;;;;;;;;;24.50;19.00;;;;;19.00;76.39;100984.06;4979616;28;45337;-72
2021/07/13 09:24:04;;;;;;;;;18.00;16.25;;;;;18.98;76.29;100986.84;4976451;28;45290;-72
2021/07/13 09:26:37;;;;;;;;;24.75;21.00;;;;;18.96;76.31;100985.25;5000054;28;45347;-72
2021/07/13 09:29:02;;;;;;;;;22.25;21.00;;;;;18.98;76.41;100992.19;4997259;28;46315;-73
2021/07/13 09:31:28;;;;;;;;;22.50;18.75;;;;;19.01;76.22;100986.63;4989954;28;45303;-73
2021/07/13 09:33:53;;;;;;;;;25.50;22.75;;;;;19.05;76.57;100981.97;4975930;28;45214;-73
2021/07/13 09:36:19;;;;;;;;;19.50;18.25;;;;;19.08;75.90;100986.25;4970202;28;45412;-73
2021/07/13 09:38:48;;;;;;;;;19.50;17.50;;;;;19.09;76.45;100983.47;4978280;28;45973;-72
2021/07/13 09:41:16;;;;;;;;;19.50;17.50;;;;;19.10;76.70;100976.34;4986097;28;45429;-72
2021/07/13 09:44:00;;;;;;;;;18.50;16.75;;;;;19.14;77.12;100982.34;4986513;28;45336;-72
2021/07/13 09:46:25;;;;;;;;;23.75;22.00;;;;;19.18;76.75;100986.53;4979745;28;45356;-72
2021/07/13 09:49:06;;;;;;;;;17.50;17.00;;;;;19.22;76.92;100977.38;4975024;28;46306;-72
2021/07/13 09:51:32;;;;;;;;;22.50;20.50;;;;;19.27;76.96;100985.06;4978433;28;45811;-72
2021/07/13 09:53:57;;;;;;;;;22.75;22.00;;;;;19.29;77.45;100992.00;4984724;28;45296;-72
2021/07/13 09:56:38;;;;;;;;;17.25;17.00;;;;;19.29;76.31;100991.13;4981200;28;45435;-72
2021/07/13 09:59:04;;;;;;;;;20.50;19.50;;;;;19.29;77.25;100994.66;4964390;28;46638;-72
2021/07/13 10:01:29;;;;;;;;;23.00;18.25;;;;;19.31;76.43;100992.75;4981991;28;45704;-72
2021/07/13 10:03:55;;;;;;;;;19.50;18.75;;;;;19.30;76.49;100987.53;4991813;28;45463;-72
2021/07/13 10:06:21;;;;;;;;;19.25;17.00;;;;;19.28;76.53;100992.97;4981796;28;45586;-72
2021/07/13 10:08:48;;;;;;;;;24.75;21.75;;;;;19.27;76.56;100999.22;4982743;28;48107;-72
2021/07/13 10:11:14;;;;;;;;;21.00;19.25;;;;;19.24;76.60;100994.09;4995075;28;45792;-72
2021/07/13 10:13:41;;;;;;;;;23.75;20.25;;;;;19.26;77.57;100992.19;4988139;28;45614;-72
2021/07/13 10:16:07;;;;;;;;;17.50;17.50;;;;;19.27;77.38;100996.56;4978533;28;45470;-72
2021/07/13 10:18:32;;;;;;;;;25.00;18.50;;;;;19.26;77.64;100992.19;4985865;28;46221;-72
2021/07/13 10:20:58;;;;;;;;;20.75;17.00;;;;;19.27;77.34;101001.03;4977139;28;45288;-72
2021/07/13 10:23:24;;;;;;;;;20.50;17.25;;;;;19.25;77.34;101002.97;4990202;28;45442;-72
2021/07/13 10:25:50;;;;;;;;;22.50;18.25;;;;;19.21;77.32;101002.31;4979116;28;46080;-72
2021/07/13 10:28:30;;;;;;;;;22.25;14.25;;;;;19.22;78.02;101002.22;4987615;28;46889;-72
2021/07/13 10:30:56;;;;;;;;;24.25;21.75;;;;;19.22;78.07;101001.34;4968858;28;45302;-72
2021/07/13 10:33:28;;;;;;;;;17.25;16.25;;;;;19.25;77.49;101003.81;4982428;28;45250;-72
2021/07/13 10:35:56;;;;;;;;;14.75;14.25;;;;;19.28;77.85;101008.09;4998174;28;45355;-72
2021/07/13 10:38:25;;;;;;;;;16.75;16.00;;;;;19.27;78.01;101001.91;4994480;28;45478;-72
2021/07/13 10:40:54;;;;;;;;;13.50;12.00;;;;;19.29;78.19;101009.78;4968499;28;45464;-72
2021/07/13 10:43:22;;;;;;;;;19.25;16.50;;;;;19.32;78.12;101005.13;4977747;28;45610;-72
2021/07/13 10:46:04;;;;;;;;;14.75;12.50;;;;;19.36;77.82;101005.75;4997292;28;46250;-72
2021/07/13 10:48:29;;;;;;;;;22.00;16.25;;;;;19.38;77.72;101003.88;4973220;28;45364;-71
2021/07/13 10:51:03;;;;;;;;;13.50;13.25;;;;;19.41;78.21;101000.16;4969145;28;45326;-72
2021/07/13 10:53:30;;;;;;;;;19.00;15.25;;;;;19.48;78.12;101003.25;4994832;28;45358;-72
2021/07/13 10:56:08;;;;;;;;;12.50;11.50;;;;;19.53;77.87;101006.47;5001182;28;45375;-72
2021/07/13 10:58:49;;;;;;;;;15.50;13.50;;;;;19.56;77.71;101006.22;4984074;28;46201;-72
2021/07/13 11:01:21;;;;;;;;;16.00;14.00;;;;;19.56;78.09;101000.91;4996638;28;45198;-72
2021/07/13 11:03:46;;;;;;;;;13.25;13.25;;;;;19.59;77.87;101005.19;4970566;28;45402;-72
2021/07/13 11:06:17;;;;;;;;;13.67;12.67;;;;;19.62;78.00;101003.16;4999145;28;45354;-72
2021/07/13 11:08:49;;;;;;;;;15.50;14.25;;;;;19.63;77.84;101001.38;5002466;28;45547;-72
2021/07/13 11:11:14;;;;;;;;;15.50;15.50;;;;;19.67;78.08;100997.53;4982302;28;45463;-72
2021/07/13 11:13:43;;;;;;;;;13.00;11.25;;;;;19.73;77.58;101001.59;4968158;28;45451;-72
2021/07/13 11:16:09;;;;;;;;;16.00;14.75;;;;;19.79;77.90;101002.03;4987354;28;45462;-72
2021/07/13 11:18:38;;;;;;;;;15.50;14.75;;;;;19.83;77.34;101007.16;4990889;28;45573;-72
2021/07/13 11:21:18;;;;;;;;;14.75;14.25;;;;;19.85;77.55;101005.22;4989527;28;45332;-72
2021/07/13 11:23:46;;;;;;;;;18.25;16.50;;;;;19.87;77.32;101013.97;4991289;28;45319;-72
2021/07/13 11:26:13;;;;;;;;;18.50;15.00;;;;;19.88;76.76;101016.53;4980279;28;47216;-72
2021/07/13 11:28:46;;;;;;;;;18.00;16.75;;;;;19.89;76.90;101022.72;4978161;28;47618;-72
2021/07/13 11:31:22;;;;;;;;;13.50;13.50;;;;;19.87;77.20;101027.31;4984474;28;45844;-71
2021/07/13 11:34:12;;;;;;;;;14.25;14.25;;;;;19.84;76.93;101033.72;4982908;28;45296;-72
2021/07/13 11:36:45;;;;;;;;;18.75;14.75;;;;;19.86;77.89;101028.25;4972276;28;45189;-72
2021/07/13 11:39:15;;;;;;;;;19.00;16.50;;;;;19.87;77.67;101040.66;4985795;28;46150;-71
2021/07/13 11:41:42;;;;;;;;;16.75;16.00;;;;;19.87;77.54;101025.50;4993405;28;45481;-73
2021/07/13 11:44:11;;;;;;;;;17.00;14.75;;;;;19.90;77.70;101027.94;5000865;28;45368;-72
2021/07/13 11:46:40;;;;;;;;;15.75;14.50;;;;;19.89;77.73;101033.38;4986584;28;45233;-72
2021/07/13 11:49:09;;;;;;;;;17.00;13.50;;;;;19.89;77.96;101034.25;4977770;28;46354;-72
2021/07/13 11:51:40;;;;;;;;;19.50;16.50;;;;;19.88;77.68;101037.00;4978080;28;45218;-72
2021/07/13 11:54:11;;;;;;;;;17.75;16.00;;;;;19.88;77.51;101032.53;4995693;28;45466;-72
2021/07/13 11:56:45;;;;;;;;;16.25;16.00;;;;;19.90;77.63;101035.94;5000073;28;45244;-72
2021/07/13 11:59:13;;;;;;;;;17.75;15.25;;;;;19.92;77.40;101033.19;5001794;28;46946;-72
2021/07/13 12:01:38;;;;;;;;;15.50;14.75;;;;;19.96;77.86;101034.69;4993874;28;45292;-72
2021/07/13 12:04:06;;;;;;;;;19.25;18.75;;;;;20.00;77.68;101033.50;4992604;28;45204;-72
2021/07/13 12:06:32;;;;;;;;;17.00;16.00;;;;;20.02;78.03;101034.28;4986680;28;47095;-72
2021/07/13 12:09:11;;;;;;;;;14.75;13.50;;;;;20.02;77.67;101050.28;4981763;28;47139;-72
2021/07/13 12:11:41;;;;;;;;;20.50;17.75;;;;;20.00;77.67;101036.16;4985852;28;45235;-72
2021/07/13 12:14:10;;;;;;;;;14.75;13.75;;;;;19.97;77.62;101041.75;4993859;28;45375;-73
2021/07/13 12:16:36;;;;;;;;;19.75;15.75;;;;;19.96;77.33;101036.47;4995625;28;45342;-73
2021/07/13 12:19:13;;;;;;;;;15.25;14.50;;;;;19.93;77.43;101044.72;4986336;28;45398;-73
2021/07/13 12:21:41;;;;;;;;;13.50;13.00;;;;;19.89;77.58;101039.59;4987871;28;45209;-73
2021/07/13 12:24:12;;;;;;;;;15.25;15.25;;;;;19.88;77.42;101042.34;4996217;28;45356;-72
2021/07/13 12:26:41;;;;;;;;;15.00;13.50;;;;;19.88;77.47;101037.00;4999032;28;45457;-73
2021/07/13 12:29:11;;;;;;;;;17.00;13.00;;;;;19.86;77.82;101038.94;4996081;28;48350;-73
2021/07/13 12:31:58;;;;;;;;;10.25;9.00;;;;;19.78;77.26;101042.97;4982902;28;45487;-73
2021/07/13 12:34:25;;;;;;;;;12.50;10.50;;;;;19.75;77.43;101045.88;4969020;28;45856;-72
2021/07/13 12:37:03;;;;;;;;;7.50;4.50;;;;;19.75;76.87;101045.00;4978328;28;45504;-72
2021/07/13 12:39:29;;;;;;;;;8.50;6.00;;;;;19.71;76.00;101040.81;4987769;28;46079;-72
2021/07/13 12:42:01;;;;;;;;;5.75;5.00;;;;;19.65;75.80;101042.97;4981201;28;45649;-72
2021/07/13 12:44:35;;;;;;;;;4.00;4.00;;;;;19.61;76.28;101040.56;4987664;28;45462;-72
2021/07/13 12:47:13;;;;;;;;;3.25;3.00;;;;;19.58;75.82;101040.81;5000013;28;45315;-72
2021/07/13 12:49:39;;;;;;;;;4.75;4.25;;;;;19.49;75.98;101031.59;4976753;28;46424;-72
2021/07/13 12:52:11;;;;;;;;;5.00;5.00;;;;;19.42;76.32;101031.16;4991195;28;45262;-72
2021/07/13 12:55:00;;;;;;;;;5.00;5.00;;;;;19.34;76.78;101036.97;4969548;28;45375;-72
2021/07/13 12:57:28;;;;;;;;;6.75;5.75;;;;;19.30;76.97;101038.16;4997858;28;45484;-72
2021/07/13 13:00:01;;;;;;;;;9.50;8.75;;;;;19.29;77.65;101039.94;4978272;28;45356;-72
2021/07/13 13:02:26;;;;;;;;;11.50;9.00;;;;;19.30;77.75;101038.16;4988419;28;45298;-72
2021/07/13 13:04:52;;;;;;;;;8.00;7.00;;;;;19.31;76.78;101018.56;4982209;28;45874;-72
2021/07/13 13:07:21;;;;;;;;;13.50;11.25;;;;;19.37;77.25;101020.81;4989096;28;45289;-72
2021/07/13 13:09:47;;;;;;;;;14.75;11.75;;;;;19.41;76.75;101019.63;4978975;28;45419;-72
2021/07/13 13:12:12;;;;;;;;;19.00;17.50;;;;;19.42;77.72;101031.16;4969637;28;45316;-72
2021/07/13 13:14:38;;;;;;;;;18.00;15.75;;;;;19.40;78.06;101033.06;4985986;28;45415;-72
2021/07/13 13:17:05;;;;;;;;;20.00;15.50;;;;;19.38;78.52;101033.19;4995319;28;45945;-72
2021/07/13 13:19:32;;;;;;;;;17.75;13.50;;;;;19.38;78.56;101029.66;4993736;28;46349;-72
2021/07/13 13:21:57;;;;;;;;;16.00;14.50;;;;;19.38;79.19;101027.84;4989738;28;45265;-72
2021/07/13 13:24:22;;;;;;;;;20.00;17.00;;;;;19.39;78.58;101024.22;4975388;28;45445;-72
2021/07/13 13:26:48;;;;;;;;;17.00;16.25;;;;;19.47;78.59;101029.03;4979267;28;45560;-73
2021/07/13 13:29:13;;;;;;;;;19.00;16.25;;;;;19.55;78.67;101034.72;4982134;28;45434;-73
2021/07/13 13:31:39;;;;;;;;;17.00;16.00;;;;;19.65;78.29;101028.78;4991153;28;45268;-73
2021/07/13 13:34:04;;;;;;;;;22.25;19.75;;;;;19.73;78.80;101037.09;4974600;28;45420;-73
2021/07/13 13:36:30;;;;;;;;;15.75;13.00;;;;;19.81;78.93;101041.03;4988241;28;45354;-73
2021/07/13 13:41:23;;;;;;;;;25.25;23.00;;;;;19.88;78.38;101045.88;4986061;28;45510;-72
2021/07/13 13:43:49;;;;;;;;;30.00;28.75;;;;;19.92;78.28;101040.34;4973227;28;45379;-72
2021/07/13 13:46:14;;;;;;;;;26.75;24.50;;;;;19.92;78.46;101049.19;4998039;28;45293;-72
2021/07/13 13:48:40;;;;;;;;;30.75;29.00;;;;;19.92;78.39;101043.84;4984546;28;46071;-72
2021/07/13 13:51:06;;;;;;;;;32.25;27.00;;;;;19.93;78.23;101048.22;4991150;28;45266;-72
2021/07/13 13:53:34;;;;;;;;;36.25;27.25;;;;;19.91;78.42;101044.81;4980905;28;45492;-72
2021/07/13 13:55:59;;;;;;;;;33.75;29.50;;;;;19.87;78.02;101048.66;4984421;28;45305;-73
2021/07/13 13:58:25;;;;;;;;;29.00;28.00;;;;;19.83;78.15;101047.16;4970660;28;46642;-71
2021/07/13 14:00:50;;;;;;;;;31.50;27.75;;;;;19.81;77.74;101043.72;4993007;28;45389;-71
2021/07/13 14:03:15;;;;;;;;;21.25;19.50;;;;;19.81;77.93;101038.38;4983785;28;45460;-71
2021/07/13 14:05:41;;;;;;;;;23.00;19.75;;;;;19.83;77.94;101040.00;4991548;28;45359;-72
2021/07/13 14:08:06;;;;;;;;;33.50;32.00;;;;;19.87;78.31;101037.97;4971731;28;45315;-71
2021/07/13 14:10:31;;;;;;;;;26.00;26.00;;;;;19.88;77.66;101029.88;4983807;28;45344;-72
2021/07/13 14:12:57;;;;;;;;;26.50;24.25;;;;;19.93;77.87;101034.06;4991816;28;45377;-72
2021/07/13 14:15:22;;;;;;;;;27.75;25.75;;;;;19.94;77.84;101020.59;4991789;28;45421;-72
2021/07/13 14:17:47;;;;;;;;;29.25;26.25;;;;;19.96;77.74;101023.16;4971605;28;46287;-72
2021/07/13 14:20:15;;;;;;;;;36.50;32.00;;;;;20.00;77.48;101030.00;4971563;28;45340;-72
2021/07/13 14:22:41;;;;;;;;;33.00;29.25;;;;;20.01;77.92;101027.22;4979279;28;45323;-72
2021/07/13 14:25:09;;;;;;;;;37.00;31.75;;;;;20.02;78.09;101026.28;4982257;28;45692;-72
2021/07/13 14:27:34;;;;;;;;;37.50;32.00;;;;;20.00;77.63;101022.81;4971883;28;45300;-72
2021/07/13 14:30:00;;;;;;;;;35.00;30.25;;;;;20.01;77.55;101019.22;4978000;28;45385;-72
2021/07/13 14:32:26;;;;;;;;;41.00;31.50;;;;;20.00;78.17;101020.16;4973067;28;45366;-72
2021/07/13 14:34:51;;;;;;;;;40.50;33.50;;;;;19.98;77.87;101023.91;4988255;28;45412;-72
2021/07/13 14:37:16;;;;;;;;;36.50;30.75;;;;;19.97;77.88;101030.22;4978823;28;45399;-72
2021/07/13 14:39:42;;;;;;;;;39.75;32.75;;;;;19.97;77.90;101025.72;4995314;28;45315;-72
2021/07/13 14:42:07;;;;;;;;;36.50;33.75;;;;;19.96;78.33;101021.34;4974561;28;45667;-72
2021/07/13 14:44:32;;;;;;;;;44.25;36.25;;;;;19.97;78.09;101022.19;4981415;28;45428;-72
2021/07/13 14:46:58;;;;;;;;;38.50;34.25;;;;;19.94;78.00;101025.94;4989190;28;45469;-72
2021/07/13 14:49:23;;;;;;;;;48.00;37.00;;;;;19.94;78.08;101020.59;4985531;28;45356;-72
2021/07/13 14:51:49;;;;;;;;;49.50;38.75;;;;;19.93;78.25;101024.22;4999844;28;45328;-72
2021/07/13 14:54:14;;;;;;;;;49.25;39.00;;;;;19.93;78.46;101026.88;4991218;28;45314;-72
2021/07/13 14:56:42;;;;;;;;;47.00;37.75;;;;;19.92;78.26;101021.66;4980334;28;46222;-72
2021/07/13 14:59:07;;;;;;;;;49.50;38.00;;;;;19.93;78.48;101023.38;4991446;28;45225;-76
2021/07/13 15:01:33;;;;;;;;;47.75;39.25;;;;;19.93;78.85;101016.22;4982542;28;45521;-76
2021/07/13 21:14:46;;;;;;;;;18.00;17.00;;;;;18.60;78.02;101272.31;5101488;23;45455;-79
2021/07/13 21:17:11;;;;;;;;;22.50;18.50;;;;;18.59;78.15;101271.47;4923412;28;45409;-79
2021/07/13 21:19:36;;;;;;;;;22.50;21.00;;;;;18.61;78.17;101277.56;4923159;28;45445;-77
2021/07/13 21:22:02;;;;;;;;;20.75;16.00;;;;;18.60;78.24;101273.16;4923733;28;45491;-77
2021/07/13 21:24:28;;;;;;;;;18.75;18.00;;;;;18.59;77.86;101279.47;4921664;28;46037;-76
2021/07/13 21:26:53;;;;;;;;;22.50;19.50;;;;;18.61;77.97;101276.69;4923013;28;45439;-76
2021/07/13 21:29:18;;;;;;;;;23.25;22.25;;;;;18.60;78.15;101281.16;4922117;28;45290;-76
2021/07/13 21:31:44;;;;;;;;;24.50;20.00;;;;;18.60;78.19;101275.84;4923660;28;45243;-76
2021/07/13 21:34:09;;;;;;;;;26.00;24.00;;;;;18.61;78.52;101276.69;4922857;28;45379;-76
2021/07/13 21:36:35;;;;;;;;;24.00;23.50;;;;;18.61;78.34;101274.91;4922711;28;46495;-76
2021/07/13 21:39:01;;;;;;;;;29.00;25.00;;;;;18.61;78.05;101272.22;4922908;28;45384;-76
2021/07/13 21:41:26;;;;;;;;;25.00;21.00;;;;;18.59;78.36;101273.28;4923162;28;45239;-76
2021/07/13 21:43:51;;;;;;;;;28.75;24.00;;;;;18.56;78.38;101271.66;4921913;28;45208;-76
2021/07/13 21:46:17;;;;;;;;;24.50;22.00;;;;;18.56;78.17;101268.97;4922689;28;45231;-76
2021/07/13 21:48:42;;;;;;;;;24.50;23.75;;;;;18.55;78.51;101272.59;4937933;28;45779;-76
2021/07/13 21:51:07;;;;;;;;;25.25;21.75;;;;;18.54;78.66;101278.88;4922134;28;45220;-76
2021/07/13 21:53:33;;;;;;;;;27.25;23.00;;;;;18.54;78.32;101270.88;4933644;28;45842;-76
2021/07/13 21:55:58;;;;;;;;;24.75;24.75;;;;;18.54;78.27;101268.22;4924549;28;47064;-76
2021/07/13 21:58:23;;;;;;;;;26.25;24.75;;;;;18.53;78.10;101274.47;4921841;28;45183;-76
2021/07/13 22:00:49;;;;;;;;;25.50;21.75;;;;;18.52;78.38;101273.63;4922559;28;45546;-76
2021/07/13 22:03:14;;;;;;;;;26.25;21.25;;;;;18.52;77.82;101273.63;4921407;28;45614;-76
2021/07/13 22:05:40;;;;;;;;;23.00;20.50;;;;;18.48;78.07;101280.06;4922371;28;46455;-76
2021/07/13 22:08:06;;;;;;;;;26.75;21.00;;;;;18.45;78.03;101274.91;4922381;28;45420;-76
2021/07/13 22:10:32;;;;;;;;;26.50;23.00;;;;;18.42;77.97;101278.63;4922169;28;45325;-76
2021/07/13 22:12:57;;;;;;;;;24.50;22.00;;;;;18.38;78.53;101276.22;4921505;28;45398;-76
2021/07/13 22:15:23;;;;;;;;;29.00;27.00;;;;;18.35;78.24;101263.94;4920057;28;48288;-76
2021/07/13 22:17:49;;;;;;;;;31.00;28.00;;;;;18.29;78.14;101261.66;4914386;28;45304;-76
2021/07/13 22:20:17;;;;;;;;;32.00;29.00;;;;;18.31;78.72;101265.09;4921333;28;45184;-76
2021/07/13 22:22:43;;;;;;;;;34.50;28.50;;;;;18.30;78.86;101271.34;4922198;28;45398;-73
2021/07/13 22:25:10;;;;;;;;;31.75;29.75;;;;;18.24;78.81;101269.91;4919675;28;46536;-73
2021/07/13 22:27:37;;;;;;;;;30.00;25.25;;;;;18.20;78.84;101269.22;4935805;28;45829;-73
2021/07/13 22:30:10;;;;;;;;;27.00;23.75;;;;;18.18;79.08;101272.88;4921461;28;45301;-74
2021/07/13 22:32:36;;;;;;;;;26.75;25.75;;;;;18.13;79.36;101269.63;4921669;28;45618;-73
2021/07/13 22:35:05;;;;;;;;;22.25;19.75;;;;;18.08;79.20;101270.75;4920752;28;45737;-73
2021/07/13 22:37:30;;;;;;;;;40.00;28.50;;;;;18.08;80.43;101269.88;4921646;28;45649;-73
2021/07/13 22:39:55;;;;;;;;;35.00;28.25;;;;;18.06;79.83;101271.78;4921091;28;45228;-73
2021/07/13 22:42:21;;;;;;;;;27.25;24.50;;;;;18.05;80.17;101270.06;4921729;28;45420;-73
2021/07/13 22:44:46;;;;;;;;;30.00;27.25;;;;;18.03;79.63;101274.59;4920659;28;46095;-73
2021/07/13 22:47:12;;;;;;;;;27.25;25.75;;;;;18.03;79.94;101283.44;4921251;28;45250;-72
2021/07/13 22:49:37;;;;;;;;;31.00;27.00;;;;;18.00;80.40;101283.63;4923545;28;45323;-72
2021/07/13 22:52:03;;;;;;;;;26.00;26.00;;;;;17.96;80.53;101266.97;4924784;28;45314;-73
